createdAt,value
2023-01-30T00:00:36.603Z,79.81
2023-01-30T00:05:57.119Z,79.18
2023-01-30T00:11:13.543Z,78.98
2023-01-30T00:16:19.686Z,79.14
2023-01-30T00:21:23.417Z,79.37
2023-01-30T00:26:27.885Z,79.24
2023-01-30T00:31:31.688Z,79.43
2023-01-30T00:36:35.583Z,79.63
2023-01-30T00:41:58.628Z,79.73
2023-01-30T00:47:06.350Z,80.02
2023-01-30T00:52:10.313Z,79.89
2023-01-30T00:57:14.149Z,79.94
2023-01-30T01:02:18.471Z,80.01
2023-01-30T01:07:22.740Z,80.08
2023-01-30T01:12:27.024Z,80.15
2023-01-30T01:17:30.971Z,80.25
2023-01-30T01:22:35.502Z,80.23
2023-01-30T01:27:39.264Z,80.30
2023-01-30T01:32:42.963Z,80.32
2023-01-30T01:37:47.186Z,80.47
2023-01-30T01:42:51.363Z,80.71
2023-01-30T01:48:35.601Z,80.88
2023-01-30T01:53:54.151Z,80.88
2023-01-30T01:59:03.364Z,80.93
2023-01-30T02:04:10.265Z,80.78
2023-01-30T02:09:14.574Z,80.60
2023-01-30T02:14:19.675Z,80.63
2023-01-30T02:19:41.260Z,80.56
2023-01-30T02:25:01.769Z,80.36
2023-01-30T02:30:39.712Z,80.12
2023-01-30T02:36:19.107Z,80.22
2023-01-30T02:41:25.685Z,80.20
2023-01-30T02:46:58.239Z,80.17
2023-01-30T02:52:04.329Z,79.73
2023-01-30T02:57:23.747Z,79.41
2023-01-30T03:02:51.160Z,79.27
2023-01-30T03:08:09.942Z,79.33
2023-01-30T03:13:41.721Z,79.05
2023-01-30T03:18:51.540Z,78.99
2023-01-30T03:23:55.261Z,78.83
2023-01-30T03:29:00.944Z,78.87
2023-01-30T03:34:04.518Z,78.80
2023-01-30T03:39:08.736Z,78.98
2023-01-30T03:44:13.124Z,78.70
2023-01-30T03:49:19.173Z,78.68
2023-01-30T03:54:23.705Z,78.40
2023-01-30T03:59:28.204Z,78.22
2023-01-30T04:04:38.626Z,77.83
2023-01-30T04:09:43.106Z,77.77
2023-01-30T04:14:48.204Z,77.80
2023-01-30T04:20:12.544Z,78.11
2023-01-30T04:25:21.309Z,77.75
2023-01-30T04:30:26.486Z,77.03
2023-01-30T04:35:37.627Z,76.68
2023-01-30T04:40:42.198Z,76.23
2023-01-30T04:45:47.466Z,76.72
2023-01-30T04:50:53.821Z,76.78
2023-01-30T04:55:57.635Z,76.23
2023-01-30T05:01:38.000Z,76.56
2023-01-30T05:06:42.121Z,76.79
2023-01-30T05:11:45.834Z,76.76
2023-01-30T05:16:49.700Z,76.71
2023-01-30T05:21:53.502Z,76.87
2023-01-30T05:26:57.283Z,76.94
2023-01-30T05:32:00.993Z,77.17
2023-01-30T05:37:05.482Z,77.25
2023-01-30T05:42:09.510Z,77.64
2023-01-30T05:47:13.969Z,77.77
2023-01-30T05:52:17.798Z,77.89
2023-01-30T05:57:21.481Z,77.88
2023-01-30T06:02:26.002Z,77.73
2023-01-30T06:07:30.481Z,77.52
2023-01-30T06:12:34.648Z,77.53
2023-01-30T06:17:40.422Z,77.23
2023-01-30T06:22:44.275Z,77.36
2023-01-30T06:27:48.876Z,77.09
2023-01-30T06:32:52.797Z,77.15
2023-01-30T06:37:56.519Z,77.01
2023-01-30T06:43:02.602Z,77.11
2023-01-30T06:48:07.145Z,77.34
2023-01-30T06:53:11.700Z,77.80
2023-01-30T06:58:16.262Z,78.01
2023-01-30T07:03:20.606Z,78.22
2023-01-30T07:08:52.672Z,78.47
2023-01-30T07:14:38.939Z,78.81
2023-01-30T07:20:13.159Z,79.33
2023-01-30T07:25:26.448Z,79.91
2023-01-30T07:30:42.754Z,80.24
2023-01-30T07:35:52.510Z,81.21
2023-01-30T07:41:00.012Z,81.64
2023-01-30T07:46:04.474Z,82.25
2023-01-30T07:51:08.716Z,82.81
2023-01-30T07:56:19.683Z,82.76
2023-01-30T08:01:25.523Z,83.04
2023-01-30T08:06:31.933Z,82.95
2023-01-30T08:11:36.808Z,83.30
2023-01-30T08:16:43.344Z,83.72
2023-01-30T08:21:48.154Z,83.99
2023-01-30T08:26:55.343Z,83.56
2023-01-30T08:32:00.075Z,83.29
2023-01-30T08:37:08.292Z,83.25
2023-01-30T08:42:17.732Z,83.09
2023-01-30T08:47:22.337Z,82.95
2023-01-30T08:52:27.343Z,82.81
2023-01-30T08:57:33.994Z,83.12
2023-01-30T09:02:39.858Z,83.34
2023-01-30T09:07:43.868Z,83.89
2023-01-30T09:12:48.608Z,84.16
2023-01-30T09:17:56.846Z,84.50
2023-01-30T09:23:02.246Z,84.92
2023-01-30T09:28:06.199Z,85.23
2023-01-30T09:33:11.567Z,85.35
2023-01-30T09:38:16.884Z,85.63
2023-01-30T09:43:45.310Z,85.62
2023-01-30T09:49:05.767Z,85.89
2023-01-30T09:54:24.811Z,85.63
2023-01-30T09:59:40.257Z,85.70
2023-01-30T10:05:00.857Z,85.97
2023-01-30T10:11:04.383Z,86.38
2023-01-30T10:16:29.260Z,86.86
2023-01-30T10:22:11.311Z,87.75
2023-01-30T10:27:18.639Z,88.17
2023-01-30T10:33:14.662Z,88.30
2023-01-30T10:38:22.457Z,88.45
2023-01-30T10:43:44.353Z,88.39
2023-01-30T10:49:17.342Z,88.35
2023-01-30T10:54:43.830Z,88.39
2023-01-30T10:59:51.037Z,88.57
2023-01-30T11:05:17.168Z,88.71
2023-01-30T11:10:31.166Z,88.74
2023-01-30T11:15:41.486Z,88.64
2023-01-30T11:20:48.093Z,88.51
2023-01-30T11:26:10.122Z,88.42
2023-01-30T11:31:41.657Z,88.92
2023-01-30T11:36:52.619Z,89.11
2023-01-30T11:42:16.729Z,89.20
2023-01-30T11:47:25.649Z,89.37
2023-01-30T11:52:32.628Z,89.34
2023-01-30T11:57:42.443Z,89.49
2023-01-30T12:02:48.403Z,89.39
2023-01-30T12:07:54.135Z,89.42
2023-01-30T12:13:01.399Z,89.34
2023-01-30T12:18:19.959Z,89.33
2023-01-30T12:23:53.650Z,89.47
2023-01-30T12:29:02.686Z,89.35
2023-01-30T12:34:08.457Z,88.95
2023-01-30T12:39:41.974Z,88.68
2023-01-30T12:44:49.278Z,87.97
2023-01-30T12:50:15.374Z,87.63
2023-01-30T12:56:07.216Z,87.26
2023-01-30T13:01:30.838Z,87.23
2023-01-30T13:07:26.232Z,87.16
2023-01-30T13:13:11.068Z,87.24
2023-01-30T13:18:38.359Z,86.96
2023-01-30T13:24:02.294Z,86.63
2023-01-30T13:29:28.469Z,86.56
2023-01-30T13:34:43.851Z,86.52
2023-01-30T13:39:55.638Z,86.51
2023-01-30T13:45:00.971Z,86.43
2023-01-30T13:50:51.584Z,85.63
2023-01-30T13:56:27.165Z,85.28
2023-01-30T14:02:22.049Z,84.98
2023-01-30T14:07:44.771Z,84.70
2023-01-30T14:12:51.131Z,84.49
2023-01-30T14:18:08.229Z,84.11
2023-01-30T14:23:23.623Z,83.99
2023-01-30T14:28:30.219Z,84.10
2023-01-30T14:33:51.441Z,83.68
2023-01-30T14:39:36.612Z,83.48
2023-01-30T14:45:05.229Z,82.73
2023-01-30T14:50:23.604Z,83.24
2023-01-30T14:55:34.940Z,82.93
2023-01-30T15:00:39.421Z,82.38
2023-01-30T15:05:45.269Z,81.27
2023-01-30T15:10:52.136Z,81.59
2023-01-30T15:16:28.515Z,81.41
2023-01-30T15:22:11.419Z,81.21
2023-01-30T15:27:31.934Z,80.78
2023-01-30T15:32:35.944Z,80.41
2023-01-30T15:37:51.484Z,80.94
2023-01-30T15:43:21.991Z,80.55
2023-01-30T15:49:07.390Z,81.05
2023-01-30T15:54:12.962Z,81.20
2023-01-30T15:59:44.676Z,81.31
2023-01-30T16:04:49.226Z,81.12
2023-01-30T16:10:08.699Z,80.45
2023-01-30T16:15:20.078Z,80.11
2023-01-30T16:20:25.063Z,80.44
2023-01-30T16:25:35.915Z,80.49
2023-01-30T16:30:42.918Z,79.89
2023-01-30T16:35:47.581Z,80.07
2023-01-30T16:40:52.499Z,80.40
2023-01-30T16:46:34.863Z,80.57
2023-01-30T16:51:42.421Z,80.43
2023-01-30T16:57:17.041Z,80.53
2023-01-30T17:02:45.397Z,80.10
2023-01-30T17:07:52.875Z,79.86
2023-01-30T17:13:00.288Z,79.71
2023-01-30T17:18:07.158Z,80.16
2023-01-30T17:23:18.063Z,80.27
2023-01-30T17:28:24.947Z,80.40
2023-01-30T17:33:34.872Z,80.44
2023-01-30T17:38:40.471Z,80.62
2023-01-30T17:43:44.685Z,80.75
2023-01-30T17:48:52.245Z,81.14
2023-01-30T17:54:00.032Z,81.41
2023-01-30T17:59:25.167Z,81.82
2023-01-30T18:04:29.812Z,82.45
2023-01-30T18:09:34.732Z,83.22
2023-01-30T18:14:39.741Z,83.85
2023-01-30T18:19:46.512Z,84.11
2023-01-30T18:24:55.279Z,84.08
2023-01-30T18:30:00.478Z,84.16
2023-01-30T18:35:07.392Z,84.37
2023-01-30T18:40:15.734Z,84.31
2023-01-30T18:45:21.353Z,84.24
2023-01-30T18:50:26.182Z,84.39
2023-01-30T18:55:32.052Z,84.89
2023-01-30T19:00:37.253Z,86.12
2023-01-30T19:05:42.817Z,87.12
2023-01-30T19:10:51.034Z,87.80
2023-01-30T19:16:04.694Z,87.96
2023-01-30T19:21:11.041Z,88.71
2023-01-30T19:26:17.798Z,88.85
2023-01-30T19:31:24.216Z,89.35
2023-01-30T19:36:33.798Z,89.53
2023-01-30T19:41:39.402Z,89.24
2023-01-30T19:46:45.513Z,89.45
2023-01-30T19:51:50.524Z,89.33
2023-01-30T19:56:59.950Z,89.19
2023-01-30T20:09:15.129Z,88.40
2023-01-30T20:14:27.358Z,88.34
2023-01-30T20:19:35.329Z,88.31
2023-01-30T20:24:43.079Z,88.35
2023-01-30T20:29:53.367Z,88.43
2023-01-30T20:35:02.866Z,88.72
2023-01-30T20:40:10.557Z,89.36
2023-01-30T20:45:19.852Z,89.86
2023-01-30T20:50:28.879Z,90.86
2023-01-30T20:55:34.685Z,91.02
2023-01-30T21:00:40.769Z,91.35
2023-01-30T21:05:58.370Z,91.85
2023-01-30T21:11:13.715Z,92.03
2023-01-30T21:16:26.501Z,91.90
2023-01-30T21:21:37.069Z,91.98
2023-01-30T21:26:46.798Z,91.98
2023-01-30T21:31:52.482Z,92.26
2023-01-30T21:37:16.267Z,92.47
2023-01-30T21:42:40.389Z,92.66
2023-01-30T21:47:45.723Z,92.63
2023-01-30T21:52:50.109Z,92.33
2023-01-30T21:57:54.405Z,91.79
2023-01-30T22:03:03.636Z,91.18
2023-01-30T22:08:16.428Z,90.87
2023-01-30T22:13:20.604Z,90.65
2023-01-30T22:18:24.583Z,90.31
2023-01-30T22:23:38.536Z,90.13
2023-01-30T22:28:48.612Z,89.80
2023-01-30T22:34:00.608Z,89.48
2023-01-30T22:39:06.704Z,88.76
2023-01-30T22:44:14.051Z,87.99
2023-01-30T22:49:19.697Z,87.38
2023-01-30T22:54:24.998Z,87.00
2023-01-30T22:59:30.253Z,86.63
2023-01-30T23:04:34.331Z,86.26
2023-01-30T23:09:38.300Z,86.11
2023-01-30T23:14:45.443Z,86.42
2023-01-30T23:19:51.372Z,86.87
2023-01-30T23:24:56.962Z,87.14
2023-01-30T23:30:01.001Z,87.54
2023-01-30T23:35:05.283Z,87.72
2023-01-30T23:40:11.467Z,87.87
2023-01-30T23:45:15.412Z,87.83
2023-01-30T23:50:19.358Z,87.47
2023-01-30T23:55:23.357Z,87.32
